Time;durP1;ratioP1;P1;durP2;ratioP2;P2;SDS_P1;SDS_P2;PMS_P1;PMS_P2;Temp;Humidity;BMP_temperature;BMP_pressure;BME280_temperature;BME280_humidity;BME280_pressure;Samples;Min_cycle;Max_cycle;Signal;HPM_P1;HPM_P2
2021/05/13 00:02:02;;;;;;;3.23;3.03;;;;;;;11.36;86.56;96089.31;5033486;28;20227;-68
2021/05/13 00:04:28;;;;;;;4.17;3.30;;;;;;;11.21;87.60;96087.31;5031234;28;20194;-69
2021/05/13 00:06:53;;;;;;;3.80;3.40;;;;;;;11.27;87.99;96082.91;5032962;28;20653;-68
2021/05/13 00:09:18;;;;;;;4.10;3.70;;;;;;;11.19;88.15;96076.31;5033379;28;20209;-68
2021/05/13 00:11:47;;;;;;;4.73;4.20;;;;;;;11.05;89.34;96072.47;5032645;28;20232;-68
2021/05/13 00:14:15;;;;;;;4.30;3.93;;;;;;;11.03;89.65;96073.78;5015246;28;20209;-68
2021/05/13 00:16:41;;;;;;;3.83;3.53;;;;;;;11.02;89.95;96077.44;5031984;28;20796;-67
2021/05/13 00:19:13;;;;;;;6.07;4.37;;;;;;;11.01;90.07;96073.22;5032470;28;20270;-66
2021/05/13 00:21:40;;;;;;;5.30;3.70;;;;;;;11.02;89.78;96074.81;5014524;28;20194;-67
2021/05/13 00:24:07;;;;;;;4.30;3.90;;;;;;;10.99;90.16;96062.97;5032580;28;20698;-67
2021/05/13 00:26:40;;;;;;;4.27;3.87;;;;;;;11.00;89.70;96061.16;5031940;28;20197;-67
2021/05/13 00:29:08;;;;;;;3.73;3.43;;;;;;;11.03;88.94;96058.03;5032731;28;20187;-67
2021/05/13 00:31:34;;;;;;;7.10;3.57;;;;;;;10.93;89.15;96058.72;5031759;28;20194;-67
2021/05/13 00:34:00;;;;;;;5.00;3.40;;;;;;;10.94;88.63;96054.25;5031756;28;20203;-67
2021/05/13 00:36:30;;;;;;;3.23;3.03;;;;;;;10.91;88.39;96054.75;5031550;28;20329;-67
2021/05/13 00:38:56;;;;;;;3.93;3.53;;;;;;;10.92;87.73;96051.13;5032872;28;20183;-66
2021/05/13 00:41:22;;;;;;;3.40;3.10;;;;;;;11.00;87.71;96056.69;5014398;28;20181;-68
2021/05/13 00:43:48;;;;;;;3.60;3.30;;;;;;;11.18;86.88;96061.59;5032440;28;20194;-67
2021/05/13 00:46:13;;;;;;;3.60;3.10;;;;;;;11.07;87.36;96053.88;5032284;28;20214;-67
2021/05/13 00:48:41;;;;;;;3.97;3.50;;;;;;;11.06;87.69;96060.94;5031826;28;20178;-66
2021/05/13 00:51:07;;;;;;;3.73;3.43;;;;;;;11.21;87.63;96057.69;5032325;28;20187;-67
2021/05/13 00:53:32;;;;;;;4.47;4.07;;;;;;;10.92;90.54;96065.00;5031400;28;20195;-67
2021/05/13 00:55:58;;;;;;;5.77;4.37;;;;;;;11.02;90.59;96062.50;5031086;28;20245;-67
2021/05/13 00:58:26;;;;;;;4.53;4.13;;;;;;;10.99;91.26;96057.72;5014038;28;20197;-67
2021/05/13 01:01:05;;;;;;;5.07;4.40;;;;;;;11.02;91.69;96062.50;5032708;28;20659;-66
2021/05/13 01:03:33;;;;;;;4.70;4.17;;;;;;;10.84;92.82;96068.06;5031871;28;20238;-67
2021/05/13 01:05:59;;;;;;;5.20;4.23;;;;;;;10.88;92.37;96077.00;5031007;28;20229;-67
2021/05/13 01:08:25;;;;;;;4.43;3.90;;;;;;;10.74;92.87;96070.56;5031456;28;20186;-68
2021/05/13 01:10:50;;;;;;;4.73;4.03;;;;;;;10.64;93.99;96071.25;5031558;28;20191;-67
2021/05/13 01:13:20;;;;;;;4.93;4.43;;;;;;;10.57;95.06;96075.88;5031241;28;20602;-67
2021/05/13 01:15:52;;;;;;;4.53;4.13;;;;;;;10.69;94.55;96076.56;5031525;28;20175;-67
2021/05/13 01:18:25;;;;;;;5.10;4.00;;;;;;;10.62;94.44;96070.69;5024350;28;20163;-67
2021/05/13 01:20:51;;;;;;;4.70;4.27;;;;;;;10.69;94.20;96067.88;5031686;28;20166;-67
2021/05/13 01:23:18;;;;;;;4.43;4.03;;;;;;;10.60;95.23;96067.50;5031464;28;20213;-67
2021/05/13 01:25:48;;;;;;;4.33;3.70;;;;;;;10.67;95.00;96067.34;5030667;28;20179;-67
2021/05/13 01:28:14;;;;;;;6.40;4.07;;;;;;;10.67;95.16;96072.56;5031485;28;20174;-67
2021/05/13 01:30:42;;;;;;;7.53;4.47;;;;;;;10.75;94.34;96070.34;5031176;28;20233;-67
2021/05/13 01:33:09;;;;;;;5.47;4.07;;;;;;;10.77;94.15;96064.81;5030777;28;20210;-67
2021/05/13 01:35:34;;;;;;;5.70;4.30;;;;;;;10.66;94.86;96068.38;5030864;28;20183;-67
2021/05/13 01:38:09;;;;;;;5.63;4.37;;;;;;;10.92;93.59;96065.00;5030752;28;20186;-67
2021/05/13 01:40:36;;;;;;;4.77;3.70;;;;;;;10.80;93.69;96061.72;5017178;28;20189;-67
2021/05/13 01:43:01;;;;;;;5.07;4.20;;;;;;;10.69;94.58;96054.78;5013900;28;20175;-67
2021/05/13 01:45:27;;;;;;;5.77;3.60;;;;;;;10.77;94.32;96063.00;5012981;28;20224;-67
2021/05/13 01:48:01;;;;;;;4.50;3.73;;;;;;;10.67;95.34;96057.66;5031086;28;20179;-67
2021/05/13 01:50:27;;;;;;;4.23;3.83;;;;;;;10.71;94.77;96047.47;5030582;28;20193;-68
2021/05/13 01:52:52;;;;;;;4.77;3.63;;;;;;;10.57;95.19;96047.06;5030350;28;20202;-67
2021/05/13 01:55:18;;;;;;;4.97;3.80;;;;;;;10.55;95.84;96041.25;5030325;28;20270;-67
2021/05/13 01:57:43;;;;;;;5.30;3.47;;;;;;;10.54;95.50;96037.03;5029703;28;20266;-67
2021/05/13 02:00:09;;;;;;;4.03;3.20;;;;;;;10.59;95.36;96037.09;5030940;28;20187;-66
2021/05/13 02:02:35;;;;;;;4.13;3.70;;;;;;;10.57;95.15;96033.16;5030696;28;20190;-67
2021/05/13 02:05:01;;;;;;;3.80;3.33;;;;;;;10.52;96.02;96022.63;5029991;28;20193;-67
2021/05/13 02:07:26;;;;;;;5.00;3.50;;;;;;;10.56;95.23;96026.31;5032289;28;20279;-68
2021/05/13 02:09:51;;;;;;;4.30;3.47;;;;;;;10.48;95.44;96024.91;5034938;28;20187;-67
2021/05/13 02:12:17;;;;;;;4.10;3.53;;;;;;;10.36;96.71;96026.88;5035170;28;20230;-67
2021/05/13 02:14:42;;;;;;;5.77;3.73;;;;;;;10.44;95.96;96018.59;5034441;28;20347;-67
2021/05/13 02:17:08;;;;;;;4.67;4.17;;;;;;;10.34;96.24;96027.13;5017468;28;20197;-66
2021/05/13 02:19:33;;;;;;;5.47;3.63;;;;;;;10.27;97.12;96021.25;5034423;28;20214;-67
2021/05/13 02:21:58;;;;;;;4.73;4.13;;;;;;;10.35;96.78;96017.44;5034841;28;20682;-67
2021/05/13 02:24:24;;;;;;;6.27;3.30;;;;;;;10.30;96.74;96023.41;5034590;28;20265;-67
2021/05/13 02:26:49;;;;;;;4.13;3.73;;;;;;;10.22;96.71;96017.78;5034355;28;20178;-67
2021/05/13 02:29:14;;;;;;;3.97;3.63;;;;;;;10.29;96.97;96010.56;5034972;28;20531;-67
2021/05/13 02:31:40;;;;;;;3.63;3.33;;;;;;;10.36;95.96;96011.16;5033658;28;20665;-66
2021/05/13 02:34:05;;;;;;;4.77;3.63;;;;;;;10.28;95.56;96007.13;5017023;28;20672;-66
2021/05/13 02:36:31;;;;;;;3.53;3.23;;;;;;;10.16;95.67;96001.22;5016004;28;20205;-67
2021/05/13 02:38:56;;;;;;;5.67;3.27;;;;;;;10.28;94.80;96004.53;5035237;28;20179;-66
2021/05/13 02:41:22;;;;;;;5.00;3.80;;;;;;;10.31;94.81;96004.03;5035070;28;20193;-66
2021/05/13 02:43:47;;;;;;;4.20;3.03;;;;;;;10.17;95.57;96005.44;5033347;28;20694;-66
2021/05/13 02:46:12;;;;;;;4.50;3.07;;;;;;;10.19;95.00;96000.75;5034934;28;20270;-66
2021/05/13 02:48:38;;;;;;;3.20;2.90;;;;;;;10.32;94.04;95996.97;5033695;28;20186;-66
2021/05/13 02:51:03;;;;;;;4.80;2.90;;;;;;;10.15;94.88;95991.75;5034077;28;20687;-66
2021/05/13 02:53:28;;;;;;;4.23;2.90;;;;;;;10.22;93.96;95999.47;5034060;28;20202;-67
2021/05/13 02:55:54;;;;;;;3.43;2.97;;;;;;;10.20;94.20;95996.28;5016534;28;20591;-66
2021/05/13 02:58:19;;;;;;;3.30;2.97;;;;;;;10.19;94.15;95997.34;5034606;28;20175;-66
2021/05/13 03:01:29;;;;;;;3.20;2.90;;;;;;;10.13;94.53;95995.66;5033514;28;20982;-66
2021/05/13 03:03:34;;;;;;;3.30;3.00;;;;;;;10.19;94.14;95995.50;5008497;28;20210;-66
2021/05/13 03:05:59;;;;;;;3.07;2.77;;;;;;;10.16;93.60;95992.53;5033796;28;20248;-66
2021/05/13 03:08:24;;;;;;;3.03;2.73;;;;;;;10.24;93.18;95998.19;5016429;28;20183;-66
2021/05/13 03:10:50;;;;;;;3.10;2.90;;;;;;;10.27;92.84;95995.06;5033575;28;20182;-66
2021/05/13 03:13:22;;;;;;;6.63;3.43;;;;;;;10.40;92.06;96002.56;5034362;28;20203;-66
2021/05/13 03:15:48;;;;;;;5.10;3.10;;;;;;;10.36;91.57;95991.00;5033178;28;21019;-66
2021/05/13 03:18:14;;;;;;;3.53;3.23;;;;;;;10.30;91.18;95996.44;5015695;28;20244;-66
2021/05/13 03:20:42;;;;;;;3.40;3.10;;;;;;;10.40;90.55;95996.53;5032434;28;20577;-66
2021/05/13 03:23:11;;;;;;;4.37;3.33;;;;;;;10.54;90.23;95999.56;5033481;28;20191;-66
2021/05/13 03:25:39;;;;;;;3.00;2.80;;;;;;;10.42;90.97;95994.47;5032741;28;20210;-66
2021/05/13 03:28:08;;;;;;;3.13;2.87;;;;;;;10.44;91.54;96000.25;5016309;28;20277;-66
2021/05/13 03:30:40;;;;;;;3.20;2.93;;;;;;;10.53;91.68;96003.25;5032947;28;20193;-66
2021/05/13 03:33:06;;;;;;;3.40;3.20;;;;;;;10.49;91.82;95997.69;5033149;28;20245;-66
2021/05/13 03:35:32;;;;;;;4.47;3.00;;;;;;;10.46;92.50;96005.25;5032890;28;20210;-66
2021/05/13 03:37:57;;;;;;;3.93;2.97;;;;;;;10.35;93.38;95996.50;5033751;28;20189;-66
2021/05/13 03:40:23;;;;;;;3.60;3.40;;;;;;;10.33;93.41;95999.34;5033449;28;20631;-65
2021/05/13 03:42:48;;;;;;;3.70;3.27;;;;;;;10.26;93.99;95995.31;5032509;28;20195;-66
2021/05/13 03:45:14;;;;;;;3.50;3.17;;;;;;;10.29;94.31;95995.63;5015405;28;20229;-66
2021/05/13 03:47:39;;;;;;;3.43;3.13;;;;;;;10.29;94.76;95998.25;5032553;28;20187;-66
2021/05/13 03:50:05;;;;;;;3.47;3.17;;;;;;;10.33;94.37;95994.09;5033195;28;20183;-66
2021/05/13 03:52:30;;;;;;;3.50;3.00;;;;;;;10.26;95.29;95992.69;5032091;28;20269;-67
2021/05/13 03:54:56;;;;;;;3.00;2.80;;;;;;;10.34;95.51;95990.44;5032979;28;20187;-67
2021/05/13 03:57:21;;;;;;;3.47;3.17;;;;;;;10.23;95.59;95987.94;5033318;28;20191;-67
2021/05/13 03:59:47;;;;;;;4.03;3.13;;;;;;;10.18;96.09;95986.06;5032515;28;20178;-66
2021/05/13 04:02:30;;;;;;;3.50;3.20;;;;;;;10.16;96.33;95985.50;5032494;28;20265;-67
2021/05/13 04:04:56;;;;;;;3.63;3.33;;;;;;;10.15;96.51;95980.47;5031987;28;20181;-67
2021/05/13 04:07:21;;;;;;;2.90;2.70;;;;;;;10.19;96.57;95982.41;5032714;28;20187;-66
2021/05/13 04:09:48;;;;;;;4.43;3.63;;;;;;;10.09;96.57;95978.81;5032415;28;20364;-66
2021/05/13 04:12:13;;;;;;;3.93;3.53;;;;;;;10.18;96.26;95980.84;5033243;28;20190;-66
2021/05/13 04:14:38;;;;;;;4.90;3.40;;;;;;;10.21;96.13;95977.72;5031901;28;20285;-67
2021/05/13 04:17:07;;;;;;;4.07;3.63;;;;;;;10.14;95.45;95977.06;5032744;28;20248;-66
2021/05/13 04:19:33;;;;;;;3.90;3.27;;;;;;;10.11;96.35;95977.56;5032082;28;20191;-66
2021/05/13 04:21:58;;;;;;;3.60;3.30;;;;;;;10.14;96.11;95971.06;5032927;28;20273;-66
2021/05/13 04:24:24;;;;;;;4.73;2.90;;;;;;;10.21;95.40;95974.31;5032850;28;20190;-67
2021/05/13 04:26:49;;;;;;;4.70;3.67;;;;;;;10.22;95.56;95978.50;5031782;28;20183;-67
2021/05/13 04:29:14;;;;;;;3.87;3.23;;;;;;;10.37;95.08;95976.06;5032748;28;20202;-67
2021/05/13 04:31:40;;;;;;;5.07;3.33;;;;;;;10.46;94.36;95979.84;5031040;28;20191;-67
2021/05/13 04:34:06;;;;;;;3.43;3.13;;;;;;;10.53;94.28;95982.28;5032242;28;20217;-66
2021/05/13 04:36:31;;;;;;;3.80;3.10;;;;;;;10.52;94.03;95984.09;5031517;28;20302;-67
2021/05/13 04:38:57;;;;;;;4.10;3.00;;;;;;;10.57;93.39;95976.31;5032287;28;20209;-66
2021/05/13 04:41:23;;;;;;;3.80;3.50;;;;;;;10.67;93.53;95986.88;5032284;28;20260;-67
2021/05/13 04:43:48;;;;;;;3.40;3.10;;;;;;;10.76;92.50;95972.28;5031652;28;20178;-66
2021/05/13 04:46:16;;;;;;;3.93;3.40;;;;;;;10.69;93.51;95969.09;5005828;28;20183;-66
2021/05/13 04:49:26;;;;;;;3.70;3.40;;;;;;;10.84;93.33;95976.31;5031375;28;20183;-67
2021/05/13 04:51:33;;;;;;;3.87;3.47;;;;;;;10.82;92.62;95979.16;5000700;28;20198;-67
2021/05/13 04:54:00;;;;;;;3.50;3.20;;;;;;;10.99;91.75;95970.41;5031936;28;20220;-67
2021/05/13 04:56:25;;;;;;;4.47;3.20;;;;;;;10.82;92.15;95975.75;5032129;28;20179;-67
2021/05/13 04:58:51;;;;;;;4.00;2.93;;;;;;;10.57;94.48;95973.69;5030904;28;20599;-67
2021/05/13 05:01:17;;;;;;;4.50;4.00;;;;;;;10.83;93.36;95974.72;5031574;28;20277;-66
2021/05/13 05:03:43;;;;;;;5.43;3.17;;;;;;;10.96;92.59;95976.16;5031073;28;20178;-67
2021/05/13 05:06:11;;;;;;;3.97;3.63;;;;;;;11.15;91.58;95975.53;5031316;28;20281;-67
2021/05/13 05:08:38;;;;;;;3.77;3.33;;;;;;;11.24;90.75;95968.00;5031565;28;20240;-67
2021/05/13 05:11:03;;;;;;;4.27;3.87;;;;;;;11.29;90.41;95975.13;5031819;28;20190;-67
2021/05/13 05:13:30;;;;;;;4.57;4.00;;;;;;;11.54;89.53;95962.97;5031530;28;20195;-67
2021/05/13 05:15:56;;;;;;;4.87;3.63;;;;;;;11.61;89.60;95963.56;5027121;28;20190;-67
2021/05/13 05:18:24;;;;;;;4.27;3.87;;;;;;;12.26;87.57;95964.97;5031874;28;20192;-67
2021/05/13 05:20:50;;;;;;;4.40;4.00;;;;;;;12.48;84.62;95962.16;5031226;28;20179;-67
2021/05/13 05:23:15;;;;;;;4.30;3.90;;;;;;;12.64;83.60;95960.38;5031650;28;20644;-67
2021/05/13 05:25:41;;;;;;;4.53;4.13;;;;;;;12.73;82.57;95956.97;5030437;28;20186;-67
2021/05/13 05:28:08;;;;;;;4.20;3.80;;;;;;;12.65;82.40;95962.72;5031598;28;20202;-67
2021/05/13 05:30:34;;;;;;;4.17;3.70;;;;;;;12.42;82.67;95956.09;5030760;28;20182;-66
2021/05/13 05:33:04;;;;;;;4.53;4.13;;;;;;;12.29;83.33;95958.41;5031434;28;20230;-65
2021/05/13 05:35:30;;;;;;;6.40;3.97;;;;;;;12.34;83.88;95961.06;5031260;28;20198;-66
2021/05/13 05:37:56;;;;;;;4.10;3.70;;;;;;;12.78;81.73;95961.44;5030965;28;20293;-65
2021/05/13 05:40:22;;;;;;;4.33;3.93;;;;;;;13.25;79.59;95966.53;5013891;28;20186;-65
2021/05/13 05:42:49;;;;;;;4.07;3.77;;;;;;;13.68;77.64;95962.53;5012221;28;20193;-65
2021/05/13 05:45:15;;;;;;;4.00;3.60;;;;;;;14.04;74.68;95958.00;5031144;28;20194;-65
2021/05/13 05:47:42;;;;;;;3.43;3.10;;;;;;;14.31;72.63;95958.41;5030597;28;20179;-65
2021/05/13 05:50:08;;;;;;;4.37;3.20;;;;;;;14.46;71.52;95961.00;5031414;28;20178;-65
2021/05/13 05:52:34;;;;;;;3.67;3.37;;;;;;;14.77;69.51;95963.47;5030440;28;20266;-66
2021/05/13 05:54:59;;;;;;;3.17;2.80;;;;;;;15.06;68.34;95963.56;5030839;28;20190;-65
2021/05/13 05:57:25;;;;;;;3.83;3.43;;;;;;;14.94;68.45;95961.25;5030682;28;20175;-67
2021/05/13 05:59:51;;;;;;;3.23;2.67;;;;;;;15.19;70.36;95960.31;5030450;28;20171;-67
2021/05/13 06:02:16;;;;;;;3.77;3.40;;;;;;;14.99;68.41;95950.66;5031271;28;20375;-67
2021/05/13 06:04:41;;;;;;;3.60;3.30;;;;;;;15.25;67.63;95948.66;5012367;28;20572;-65
2021/05/13 06:07:07;;;;;;;3.10;2.80;;;;;;;15.60;66.37;95944.94;5030758;28;20256;-66
2021/05/13 06:09:32;;;;;;;3.45;2.80;;;;;;;15.68;65.76;95952.25;5031147;28;20190;-66
2021/05/13 06:11:58;;;;;;;3.80;2.90;;;;;;;15.86;64.08;95942.84;5030918;28;20778;-66
2021/05/13 06:14:24;;;;;;;3.80;2.53;;;;;;;15.78;63.81;95945.03;5030879;28;20268;-65
2021/05/13 06:16:49;;;;;;;2.55;2.35;;;;;;;15.71;64.06;95951.72;5012173;28;20204;-65
2021/05/13 06:19:17;;;;;;;3.22;2.90;;;;;;;15.83;63.80;95948.69;5013035;28;20272;-66
2021/05/13 06:21:43;;;;;;;2.97;2.78;;;;;;;15.70;64.10;95947.50;5030359;28;20198;-66
2021/05/13 06:24:11;;;;;;;4.80;2.90;;;;;;;15.77;63.66;95950.59;5030840;28;20550;-66
2021/05/13 06:26:36;;;;;;;2.83;2.63;;;;;;;15.70;63.60;95948.28;5029772;28;20190;-66
2021/05/13 06:29:04;;;;;;;2.95;2.45;;;;;;;15.85;63.43;95952.63;5030678;28;20208;-66
2021/05/13 06:31:30;;;;;;;2.90;2.70;;;;;;;16.05;62.99;95952.41;5030162;28;20195;-67
2021/05/13 06:33:55;;;;;;;2.85;2.65;;;;;;;16.11;63.49;95951.28;5030047;28;20260;-66
2021/05/13 06:36:20;;;;;;;2.85;2.63;;;;;;;16.12;62.81;95944.91;5030579;28;20187;-66
2021/05/13 06:38:47;;;;;;;3.28;2.72;;;;;;;16.27;61.32;95943.97;5012555;28;20179;-66
2021/05/13 06:41:13;;;;;;;2.80;2.60;;;;;;;16.32;61.98;95949.19;5030734;28;20179;-66
2021/05/13 06:43:38;;;;;;;5.40;3.05;;;;;;;16.48;60.67;95949.78;5029956;28;20194;-66
2021/05/13 06:46:05;;;;;;;2.53;2.35;;;;;;;16.35;60.90;95945.97;5012291;28;20187;-67
2021/05/13 06:48:36;;;;;;;3.70;2.85;;;;;;;16.40;61.97;95943.25;5030671;28;20183;-68
2021/05/13 06:51:03;;;;;;;4.03;3.03;;;;;;;16.43;61.26;95947.22;5019505;28;20221;-67
2021/05/13 06:53:28;;;;;;;4.72;3.13;;;;;;;16.36;61.97;95947.56;5030687;28;20202;-67
2021/05/13 06:55:54;;;;;;;3.50;3.13;;;;;;;16.13;62.98;95940.44;5033007;28;20269;-66
2021/05/13 06:58:20;;;;;;;3.17;2.88;;;;;;;16.14;63.12;95952.59;5033746;28;20183;-66
2021/05/13 07:00:46;;;;;;;3.50;2.88;;;;;;;16.27;62.89;95946.63;5032833;28;20269;-66
2021/05/13 07:03:12;;;;;;;3.72;2.95;;;;;;;16.33;63.45;95947.34;5034210;28;20663;-65
2021/05/13 07:05:37;;;;;;;3.17;2.87;;;;;;;16.41;62.60;95952.00;5031387;28;20187;-65
2021/05/13 07:08:04;;;;;;;2.38;2.28;;;;;;;16.49;62.14;95949.53;5033859;28;20236;-66
2021/05/13 07:10:30;;;;;;;2.80;2.58;;;;;;;16.66;60.96;95941.13;5034411;28;20189;-66
2021/05/13 07:12:56;;;;;;;3.28;2.97;;;;;;;16.74;61.20;95935.19;5033101;28;20199;-65
2021/05/13 07:15:22;;;;;;;3.30;3.10;;;;;;;16.87;61.01;95933.69;5033856;28;20210;-65
2021/05/13 07:17:47;;;;;;;3.58;2.50;;;;;;;16.97;60.35;95933.53;5033327;28;20640;-66
2021/05/13 07:20:13;;;;;;;2.75;2.40;;;;;;;17.02;60.60;95934.25;5033776;28;20182;-66
2021/05/13 07:22:39;;;;;;;3.80;2.60;;;;;;;17.09;59.44;95933.09;5032490;28;20179;-66
2021/05/13 07:25:05;;;;;;;3.10;2.80;;;;;;;17.12;58.93;95933.28;5033236;28;20639;-67
2021/05/13 07:27:30;;;;;;;2.60;2.40;;;;;;;17.20;58.70;95931.84;5032952;28;20244;-67
2021/05/13 07:29:56;;;;;;;2.65;2.45;;;;;;;17.17;59.19;95927.13;5031316;28;20262;-66
2021/05/13 07:32:21;;;;;;;2.88;2.40;;;;;;;17.33;58.43;95929.25;5032215;28;20233;-65
2021/05/13 07:34:46;;;;;;;3.35;2.25;;;;;;;17.20;58.00;95930.00;5031298;28;20609;-66
2021/05/13 07:37:12;;;;;;;2.53;2.33;;;;;;;17.25;58.12;95921.19;5032568;28;20269;-67
2021/05/13 07:39:38;;;;;;;2.30;2.10;;;;;;;17.49;58.11;95929.78;5013473;28;20523;-66
2021/05/13 07:42:03;;;;;;;3.25;2.28;;;;;;;17.54;58.43;95929.72;5014814;28;20198;-66
2021/05/13 07:44:29;;;;;;;4.13;2.20;;;;;;;17.58;58.06;95924.59;5032695;28;20213;-65
2021/05/13 07:46:57;;;;;;;2.65;2.50;;;;;;;17.49;57.65;95927.16;5033048;28;20224;-67
2021/05/13 07:49:22;;;;;;;2.40;2.20;;;;;;;17.70;56.93;95919.66;5033828;28;20186;-68
2021/05/13 07:51:48;;;;;;;2.50;2.30;;;;;;;17.75;57.03;95919.56;5015216;28;20182;-67
2021/05/13 07:54:14;;;;;;;2.08;1.88;;;;;;;17.73;56.65;95919.06;5015425;28;20261;-67
2021/05/13 07:56:39;;;;;;;2.20;2.00;;;;;;;17.85;56.05;95917.50;5014971;28;20178;-67
2021/05/13 07:59:05;;;;;;;2.35;2.00;;;;;;;18.08;54.96;95918.41;5032790;28;20195;-68
2021/05/13 08:01:30;;;;;;;3.42;1.73;;;;;;;18.18;55.01;95918.19;5033367;28;20226;-68
2021/05/13 08:03:56;;;;;;;2.38;1.70;;;;;;;18.48;53.16;95916.78;5014452;28;20194;-68
2021/05/13 08:06:21;;;;;;;1.88;1.70;;;;;;;18.73;51.90;95920.78;5028227;28;20639;-68
2021/05/13 08:08:47;;;;;;;1.80;1.55;;;;;;;18.79;51.95;95914.28;5031833;28;20183;-68
2021/05/13 08:11:12;;;;;;;2.20;1.80;;;;;;;19.02;52.37;95915.09;5033439;28;20186;-67
2021/05/13 08:13:38;;;;;;;2.95;2.03;;;;;;;19.33;52.43;95915.94;5031741;28;20241;-67
2021/05/13 08:16:04;;;;;;;2.35;1.70;;;;;;;18.82;50.76;95916.34;5031942;28;20265;-67
2021/05/13 08:18:29;;;;;;;2.13;1.55;;;;;;;19.23;51.57;95910.06;5028928;28;20175;-68
2021/05/13 08:20:55;;;;;;;2.17;1.83;;;;;;;19.29;51.20;95912.31;5014497;28;20624;-68
2021/05/13 08:23:20;;;;;;;2.17;1.60;;;;;;;18.98;51.71;95911.47;5014760;28;20531;-68
2021/05/13 08:25:46;;;;;;;2.10;1.52;;;;;;;19.10;50.75;95903.75;5031050;28;20190;-67
2021/05/13 08:28:11;;;;;;;1.80;1.42;;;;;;;18.00;53.34;95903.16;5032180;28;20187;-68
2021/05/13 08:30:37;;;;;;;2.05;1.90;;;;;;;18.21;53.47;95908.88;5030599;28;20186;-68
2021/05/13 08:33:03;;;;;;;1.58;1.48;;;;;;;18.13;52.97;95904.25;5031429;28;20585;-68
2021/05/13 08:35:28;;;;;;;4.13;1.90;;;;;;;17.56;54.13;95898.38;5031133;28;20216;-68
2021/05/13 08:37:54;;;;;;;1.33;1.27;;;;;;;17.68;54.86;95895.28;5030594;28;20223;-68
2021/05/13 08:40:20;;;;;;;1.98;1.85;;;;;;;16.96;56.61;95897.53;5031823;28;20179;-68
2021/05/13 08:42:45;;;;;;;2.58;2.30;;;;;;;16.74;57.92;95899.97;5030866;28;20213;-67
2021/05/13 08:45:11;;;;;;;1.80;1.70;;;;;;;15.96;60.76;95901.22;5031712;28;20655;-66
2021/05/13 08:47:44;;;;;;;3.08;2.10;;;;;;;16.20;60.42;95896.72;5031321;28;20190;-67
2021/05/13 08:50:10;;;;;;;2.08;1.88;;;;;;;16.01;61.23;95892.44;5030951;28;20198;-67
2021/05/13 08:52:36;;;;;;;3.22;2.20;;;;;;;15.89;60.28;95890.19;5031248;28;20178;-67
2021/05/13 08:55:03;;;;;;;2.50;2.30;;;;;;;15.66;60.05;95899.69;5030699;28;20214;-67
2021/05/13 08:57:29;;;;;;;3.00;2.60;;;;;;;15.41;60.34;95894.66;5031211;28;20300;-67
2021/05/13 08:59:57;;;;;;;3.73;2.53;;;;;;;15.43;60.74;95897.81;5012503;28;20655;-66
2021/05/13 09:02:23;;;;;;;2.53;2.33;;;;;;;15.18;60.96;95904.09;5031163;28;20608;-67
2021/05/13 09:04:52;;;;;;;2.17;2.07;;;;;;;15.31;60.25;95892.91;5030265;28;20183;-67
2021/05/13 09:07:24;;;;;;;2.60;2.40;;;;;;;15.38;59.96;95895.97;5013947;28;20189;-67
2021/05/13 09:10:00;;;;;;;3.03;2.20;;;;;;;14.93;61.45;95889.22;5028305;28;20212;-67
2021/05/13 09:12:37;;;;;;;2.23;2.03;;;;;;;15.23;60.68;95882.91;5024474;28;20261;-67
2021/05/13 09:15:20;;;;;;;2.30;2.17;;;;;;;15.52;59.92;95876.88;5030989;28;20194;-67
2021/05/13 09:18:05;;;;;;;2.03;1.93;;;;;;;15.43;60.12;95873.25;5029267;28;20197;-67
2021/05/13 09:20:39;;;;;;;2.77;2.10;;;;;;;15.02;61.05;95884.16;5030565;28;20615;-67
2021/05/13 09:23:28;;;;;;;2.43;2.07;;;;;;;15.25;59.76;95880.00;5030376;28;20182;-67
2021/05/13 09:26:06;;;;;;;1.93;1.80;;;;;;;15.35;59.00;95872.00;5030417;28;20186;-67
2021/05/13 09:28:31;;;;;;;1.77;1.63;;;;;;;15.73;58.99;95873.72;5030795;28;20236;-67
2021/05/13 09:30:56;;;;;;;1.40;1.30;;;;;;;15.51;58.14;95868.13;5029880;28;20631;-67
2021/05/13 09:33:30;;;;;;;4.70;2.10;;;;;;;15.71;57.37;95870.59;4996564;28;20198;-67
2021/05/13 09:35:57;;;;;;;1.85;1.75;;;;;;;15.75;56.84;95866.31;5029675;28;20321;-67
2021/05/13 09:38:33;;;;;;;1.93;1.77;;;;;;;15.91;56.45;95871.44;5030644;28;20178;-67
2021/05/13 09:41:00;;;;;;;2.05;1.90;;;;;;;15.79;56.11;95869.19;5029929;28;20273;-67
2021/05/13 09:43:31;;;;;;;1.97;1.70;;;;;;;15.84;55.32;95868.34;5030904;28;20206;-66
2021/05/13 09:45:59;;;;;;;1.65;1.48;;;;;;;15.91;55.24;95861.66;5029948;28;20178;-67
2021/05/13 09:48:38;;;;;;;3.22;1.70;;;;;;;16.10;55.20;95864.34;5030903;28;20674;-67
2021/05/13 09:51:22;;;;;;;1.50;1.40;;;;;;;16.10;54.71;95866.97;5030138;28;20241;-67
2021/05/13 09:54:15;;;;;;;1.77;1.45;;;;;;;16.35;53.28;95863.19;5029507;28;20734;-68
2021/05/13 09:56:49;;;;;;;4.13;1.52;;;;;;;16.38;52.85;95857.34;5011965;28;20591;-65
2021/05/13 09:59:25;;;;;;;1.45;1.35;;;;;;;16.65;51.68;95854.09;5029307;28;20183;-66
2021/05/13 10:01:52;;;;;;;1.30;1.30;;;;;;;16.66;52.08;95856.44;5028672;28;20242;-65
2021/05/13 10:04:18;;;;;;;1.48;1.38;;;;;;;17.27;50.39;95852.81;5029886;28;20217;-67
2021/05/13 10:06:44;;;;;;;1.52;1.33;;;;;;;17.21;50.18;95848.69;5029705;28;20182;-65
2021/05/13 10:09:13;;;;;;;2.47;1.20;;;;;;;17.70;49.62;95848.09;5029980;28;20524;-65
2021/05/13 10:11:42;;;;;;;2.97;1.55;;;;;;;18.07;48.65;95857.69;5029744;28;20224;-67
2021/05/13 10:14:08;;;;;;;2.05;1.08;;;;;;;18.24;49.28;95852.56;5030042;28;20225;-66
2021/05/13 10:16:34;;;;;;;1.52;1.42;;;;;;;18.40;48.25;95867.06;5030016;28;20639;-67
2021/05/13 10:19:05;;;;;;;1.63;1.50;;;;;;;18.57;47.01;95864.59;5029145;28;20768;-68
2021/05/13 10:21:33;;;;;;;1.67;1.20;;;;;;;18.63;47.08;95859.94;5026460;28;20619;-67
2021/05/13 10:23:58;;;;;;;1.67;1.58;;;;;;;18.67;46.78;95856.41;5030366;28;20225;-68
2021/05/13 10:26:30;;;;;;;1.25;1.20;;;;;;;18.58;46.00;95850.25;5030568;28;20551;-68
2021/05/13 10:28:56;;;;;;;1.50;1.10;;;;;;;18.43;46.51;95850.56;5031328;28;20709;-67
2021/05/13 10:31:35;;;;;;;1.40;1.30;;;;;;;18.55;47.17;95847.41;5034189;28;20193;-67
2021/05/13 10:34:00;;;;;;;1.60;1.45;;;;;;;18.60;47.12;95845.44;5032961;28;20272;-67
2021/05/13 10:36:26;;;;;;;1.17;1.17;;;;;;;18.59;47.40;95849.16;5033614;28;20542;-66
2021/05/13 10:39:04;;;;;;;1.00;0.90;;;;;;;18.67;47.06;95839.69;5033615;28;20186;-66
2021/05/13 10:41:33;;;;;;;1.48;1.33;;;;;;;18.37;45.89;95845.66;5028089;28;20175;-66
2021/05/13 10:44:19;;;;;;;3.25;1.02;;;;;;;18.32;45.80;95845.75;5033826;28;20179;-67
2021/05/13 10:46:55;;;;;;;1.58;1.20;;;;;;;18.08;46.68;95848.66;5016370;28;20194;-66
2021/05/13 10:49:25;;;;;;;1.10;1.00;;;;;;;18.28;46.77;95842.91;5034286;28;20710;-66
2021/05/13 10:51:55;;;;;;;1.35;0.93;;;;;;;18.49;46.77;95846.72;5034382;28;20225;-68
2021/05/13 10:54:29;;;;;;;1.70;0.95;;;;;;;18.03;46.63;95838.94;5028491;28;20232;-67
2021/05/13 10:57:14;;;;;;;1.42;1.20;;;;;;;17.96;47.68;95837.75;5030416;28;20182;-67
2021/05/13 11:00:08;;;;;;;1.38;0.93;;;;;;;18.55;46.52;95839.44;5032312;28;20532;-66
2021/05/13 11:02:45;;;;;;;1.17;0.82;;;;;;;17.89;45.06;95834.75;5014289;28;20672;-64
2021/05/13 11:05:43;;;;;;;0.73;0.73;;;;;;;18.24;46.04;95837.44;5012710;28;20521;-67
2021/05/13 11:08:08;;;;;;;1.08;0.60;;;;;;;18.43;45.93;95842.59;5014905;28;20182;-66
2021/05/13 11:10:52;;;;;;;1.05;1.00;;;;;;;18.20;47.83;95825.84;5014367;28;20179;-66
2021/05/13 11:13:19;;;;;;;1.65;1.05;;;;;;;18.01;48.31;95835.78;5010597;28;20238;-67
2021/05/13 11:15:50;;;;;;;1.35;0.80;;;;;;;17.90;48.95;95838.94;5014033;28;20179;-66
2021/05/13 11:18:18;;;;;;;2.17;0.98;;;;;;;17.84;49.02;95840.91;5013286;28;20218;-67
2021/05/13 11:20:46;;;;;;;0.82;0.82;;;;;;;18.08;48.72;95846.00;4995117;28;20195;-67
2021/05/13 11:23:18;;;;;;;0.88;0.80;;;;;;;18.03;48.28;95844.25;5013688;28;20191;-67
2021/05/13 11:25:52;;;;;;;1.45;1.00;;;;;;;17.92;48.50;95850.03;5012195;28;20634;-67
2021/05/13 11:28:42;;;;;;;0.80;0.80;;;;;;;17.84;48.71;95844.34;5013186;28;20196;-67
2021/05/13 11:31:07;;;;;;;1.08;0.98;;;;;;;17.93;48.12;95846.31;5014249;28;20183;-66
2021/05/13 11:33:55;;;;;;;1.77;0.90;;;;;;;18.16;48.09;95838.16;5013966;28;20223;-66
2021/05/13 11:36:29;;;;;;;0.70;0.70;;;;;;;18.45;47.17;95829.00;5011187;28;20637;-66
2021/05/13 11:38:56;;;;;;;0.80;0.80;;;;;;;18.60;46.99;95831.38;5012040;28;20190;-67